Time;durP1;ratioP1;P1;durP2;ratioP2;P2;SDS_P1;SDS_P2;PMS_P1;PMS_P2;Temp;Humidity;BMP_temperature;BMP_pressure;BME280_temperature;BME280_humidity;BME280_pressure;Samples;Min_cycle;Max_cycle;Signal;HPM_P1;HPM_P2
2022/01/26 00:06:12;;;;;;;35.55;25.00;;;;;;;-2.32;69.40;94909.36;1638338;86;21594;-46
2022/01/26 00:08:37;;;;;;;31.27;22.85;;;;;;;-2.23;69.17;94911.25;1637583;86;21180;-47
2022/01/26 00:11:04;;;;;;;30.02;20.97;;;;;;;-2.21;68.96;94904.93;1636353;86;21069;-46
2022/01/26 00:13:31;;;;;;;30.05;20.40;;;;;;;-2.22;68.87;94909.32;1636934;86;21059;-48
2022/01/26 00:16:00;;;;;;;24.20;16.87;;;;;;;-2.24;68.88;94907.00;1606184;88;21004;-48
2022/01/26 00:18:31;;;;;;;22.70;16.30;;;;;;;-2.28;68.93;94895.95;1598670;88;21500;-48
2022/01/26 00:21:04;;;;;;;24.02;16.35;;;;;;;-2.36;69.13;94889.69;1609003;88;22036;-47
2022/01/26 00:28:57;;;;;;;20.90;15.18;;;;;;;-2.53;69.82;94899.61;1604767;87;20994;-52
2022/01/26 00:39:20;;;;;;;19.82;14.63;;;;;;;-2.46;69.81;94893.56;1633037;86;21604;-48
2022/01/26 00:41:47;;;;;;;17.98;13.62;;;;;;;-2.35;69.71;94901.25;1641881;86;21131;-47
2022/01/26 00:44:14;;;;;;;21.10;15.30;;;;;;;-2.28;69.19;94896.75;1601000;86;20973;-47
2022/01/26 00:46:47;;;;;;;18.25;14.55;;;;;;;-2.28;69.30;94903.48;1637115;86;21165;-47
2022/01/26 00:49:09;;;;;;;26.15;19.35;;;;;;;-2.21;69.43;94904.93;1642955;86;21061;-47
2022/01/26 00:51:36;;;;;;;20.88;15.40;;;;;;;-2.12;69.38;94900.05;1611279;88;20996;-48
2022/01/26 00:54:06;;;;;;;22.90;15.68;;;;;;;-2.04;69.28;94892.28;1583808;88;21087;-48
2022/01/26 00:56:33;;;;;;;20.55;15.75;;;;;;;-2.01;69.05;94897.50;1616210;87;21669;-48
2022/01/26 00:59:01;;;;;;;26.25;16.05;;;;;;;-2.00;68.98;94889.65;1594032;88;21176;-47
2022/01/26 01:01:27;;;;;;;20.40;15.35;;;;;;;-1.96;68.89;94893.92;1606591;88;21005;-46
2022/01/26 01:03:54;;;;;;;22.05;15.32;;;;;;;-1.96;68.77;94893.92;1612783;86;21526;-46
2022/01/26 01:06:30;;;;;;;17.87;12.85;;;;;;;-1.95;68.70;94896.83;1611825;87;21049;-48
2022/01/26 01:08:57;;;;;;;22.22;15.48;;;;;;;-1.94;68.48;94887.59;1595795;88;21091;-47
2022/01/26 01:11:25;;;;;;;22.93;16.77;;;;;;;-2.01;68.48;94883.47;1577945;88;21187;-47
2022/01/26 01:13:53;;;;;;;16.42;12.78;;;;;;;-1.99;68.71;94883.12;1590246;89;21099;-47
2022/01/26 01:16:21;;;;;;;20.80;16.35;;;;;;;-1.95;68.34;94886.63;1616042;86;21060;-48
2022/01/26 01:21:52;;;;;;;17.52;13.70;;;;;;;-1.85;68.31;94885.42;1626035;87;21094;-48
2022/01/26 01:34:06;;;;;;;18.75;13.62;;;;;;;-1.88;68.33;94865.94;1601275;88;21072;-48
2022/01/26 01:36:35;;;;;;;22.20;15.30;;;;;;;-1.85;68.51;94872.50;1649301;85;22388;-46
2022/01/26 01:39:01;;;;;;;20.00;14.00;;;;;;;-1.87;68.61;94858.06;1615753;88;21061;-47
2022/01/26 01:41:28;;;;;;;16.25;12.82;;;;;;;-1.85;68.73;94853.08;1636054;87;20976;-47
2022/01/26 01:43:55;;;;;;;14.95;11.73;;;;;;;-1.82;68.86;94859.63;1633356;86;21645;-47
2022/01/26 01:46:22;;;;;;;15.95;11.40;;;;;;;-1.84;68.99;94860.02;1632332;87;21083;-47
2022/01/26 01:48:48;;;;;;;12.88;10.90;;;;;;;-1.91;69.20;94851.85;1635316;87;21166;-47
2022/01/26 01:51:17;;;;;;;14.28;11.45;;;;;;;-1.92;69.52;94851.62;1632116;86;21429;-47
2022/01/26 01:53:44;;;;;;;15.75;12.53;;;;;;;-1.90;69.45;94848.02;1629398;86;21033;-47
2022/01/26 01:56:14;;;;;;;14.43;10.88;;;;;;;-1.90;69.38;94850.70;1612079;87;21082;-48
2022/01/26 01:58:42;;;;;;;15.48;11.70;;;;;;;-1.94;69.44;94851.21;1636764;86;21063;-48
2022/01/26 02:01:09;;;;;;;15.95;12.33;;;;;;;-2.00;69.51;94858.06;1629551;85;21182;-47
2022/01/26 02:03:35;;;;;;;18.37;13.35;;;;;;;-2.00;69.57;94861.35;1625874;86;21172;-48
2022/01/26 02:06:02;;;;;;;24.65;15.10;;;;;;;-2.07;69.71;94859.33;1634683;86;21662;-47
2022/01/26 02:08:29;;;;;;;36.65;19.87;;;;;;;-2.11;69.76;94861.17;1636211;86;21021;-47
2022/01/26 02:10:56;;;;;;;21.97;14.85;;;;;;;-2.10;69.98;94853.30;1646867;86;21039;-46
2022/01/26 02:13:39;;;;;;;21.87;14.35;;;;;;;-1.99;69.85;94856.92;1643972;85;21114;-48
2022/01/26 02:22:00;;;;;;;18.65;13.60;;;;;;;-1.91;69.28;94859.94;1639803;86;21022;-47
2022/01/26 02:52:08;;;;;;;28.92;19.25;;;;;;;-1.78;68.62;94842.37;1641409;85;20995;-47
2022/01/26 02:57:07;;;;;;;26.20;19.00;;;;;;;-1.53;67.62;94843.45;1586772;89;21548;-46
2022/01/26 02:59:50;;;;;;;21.65;14.78;;;;;;;-1.56;67.47;94840.13;1590998;88;21084;-47
2022/01/26 03:02:04;;;;;;;26.27;18.73;;;;;;;-1.60;67.45;94840.66;1595386;89;21528;-48
2022/01/26 03:07:15;;;;;;;21.40;14.83;;;;;;;-1.65;67.66;94835.61;1594712;90;21214;-47
2022/01/26 03:09:36;;;;;;;17.92;15.00;;;;;;;-1.59;67.42;94843.56;1591658;89;21040;-46
2022/01/26 03:12:00;;;;;;;16.67;13.00;;;;;;;-1.60;67.05;94841.45;1571579;89;21097;-47
2022/01/26 03:17:17;;;;;;;21.60;15.38;;;;;;;-1.79;67.04;94840.81;1630907;86;21089;-48
2022/01/26 03:19:39;;;;;;;25.70;17.50;;;;;;;-1.87;67.36;94839.19;1636075;86;21135;-47
2022/01/26 03:28:07;;;;;;;;;;;;;;;;;;;;;
2022/01/26 03:30:09;;;;;;;18.23;14.95;;;;;;;-1.72;66.95;94844.97;1659395;86;20975;-48
2022/01/26 03:35:28;;;;;;;17.65;13.32;;;;;;;-1.55;66.56;94841.67;1633710;86;21107;-47
2022/01/26 03:37:54;;;;;;;19.62;14.93;;;;;;;-1.51;66.23;94847.91;1603835;88;21072;-47
2022/01/26 03:40:28;;;;;;;14.83;12.28;;;;;;;-1.52;66.38;94849.81;1577654;89;21116;-48
2022/01/26 03:42:48;;;;;;;15.18;13.55;;;;;;;-1.52;66.65;94851.17;1590108;89;21572;-46
2022/01/26 03:45:15;;;;;;;21.00;18.52;;;;;;;-1.53;66.74;94857.70;1572501;89;21096;-48
2022/01/26 03:47:42;;;;;;;18.90;15.25;;;;;;;-1.55;66.92;94853.25;1595075;89;21053;-47
2022/01/26 03:50:09;;;;;;;16.12;13.05;;;;;;;-1.57;66.96;94848.80;1553722;89;21549;-47
2022/01/26 03:52:36;;;;;;;18.12;12.80;;;;;;;-1.62;67.02;94851.05;1590759;89;21107;-48
2022/01/26 03:55:04;;;;;;;17.77;13.65;;;;;;;-1.68;67.24;94849.83;1609704;88;21070;-49
2022/01/26 03:57:31;;;;;;;19.50;13.83;;;;;;;-1.79;67.33;94847.56;1597842;88;21148;-49
2022/01/26 03:59:58;;;;;;;17.60;13.00;;;;;;;-1.89;67.60;94841.48;1580590;90;21702;-52
2022/01/26 04:02:25;;;;;;;15.13;13.00;;;;;;;-1.91;68.05;94848.36;1578710;89;21082;-48
2022/01/26 04:04:58;;;;;;;15.83;12.63;;;;;;;-1.88;68.13;94844.94;1613001;87;21094;-50
2022/01/26 04:07:21;;;;;;;19.87;14.05;;;;;;;-1.85;68.13;94847.69;1633011;86;21564;-50
2022/01/26 04:09:47;;;;;;;20.23;14.53;;;;;;;-1.83;68.03;94844.05;1638776;86;21134;-48
2022/01/26 04:12:15;;;;;;;17.85;15.05;;;;;;;-1.77;68.02;94838.53;1640500;86;21006;-49
2022/01/26 04:14:48;;;;;;;21.12;15.40;;;;;;;-1.70;67.76;94840.74;1589247;86;21151;-48
2022/01/26 04:17:11;;;;;;;15.65;12.20;;;;;;;-1.60;67.53;94843.36;1613815;86;21100;-49
2022/01/26 04:19:40;;;;;;;19.50;14.50;;;;;;;-1.51;67.10;94842.52;1640432;86;21100;-47
2022/01/26 04:22:20;;;;;;;17.45;14.73;;;;;;;-1.54;66.71;94845.95;1590766;89;21241;-48
2022/01/26 04:24:49;;;;;;;17.70;13.28;;;;;;;-1.61;66.77;94837.20;1613732;87;21537;-47
2022/01/26 04:27:22;;;;;;;19.62;13.70;;;;;;;-1.66;66.62;94835.40;1636596;86;21043;-48
2022/01/26 04:29:44;;;;;;;18.73;13.58;;;;;;;-1.69;66.82;94844.23;1635403;87;21014;-48
2022/01/26 04:32:13;;;;;;;18.55;13.28;;;;;;;-1.64;66.69;94844.69;1635542;86;21097;-48
2022/01/26 04:34:39;;;;;;;19.87;13.90;;;;;;;-1.64;66.57;94843.89;1616691;87;21182;-48
2022/01/26 04:37:32;;;;;;;20.10;14.75;;;;;;;-1.67;66.64;94847.33;1614212;87;21046;-49
2022/01/26 04:40:00;;;;;;;18.80;13.75;;;;;;;-1.67;66.67;94837.30;1625618;86;21069;-48
2022/01/26 04:45:09;;;;;;;24.37;15.78;;;;;;;-1.59;66.41;94839.52;1641660;86;21862;-47
2022/01/26 04:47:36;;;;;;;18.55;13.72;;;;;;;-1.65;66.58;94835.02;1586683;88;21251;-46
2022/01/26 04:50:05;;;;;;;21.33;16.00;;;;;;;-1.66;66.61;94840.20;1597148;89;21564;-48
2022/01/26 04:52:32;;;;;;;23.25;15.53;;;;;;;-1.71;66.54;94845.17;1593187;89;21034;-47
2022/01/26 04:54:59;;;;;;;23.45;16.73;;;;;;;-1.80;66.78;94839.27;1560729;89;21005;-48
2022/01/26 04:57:25;;;;;;;22.87;15.85;;;;;;;-1.82;66.83;94842.91;1601199;86;21532;-52
2022/01/26 04:59:52;;;;;;;26.37;17.30;;;;;;;-1.81;66.71;94841.00;1587100;89;21150;-48
2022/01/26 05:02:18;;;;;;;21.05;15.43;;;;;;;-1.79;66.54;94847.56;1592178;89;21060;-49
2022/01/26 05:04:45;;;;;;;23.32;16.00;;;;;;;-1.82;66.38;94842.11;1578349;88;21052;-47
2022/01/26 05:07:12;;;;;;;27.27;18.23;;;;;;;-1.83;66.41;94839.21;1581982;89;21119;-47
2022/01/26 05:09:39;;;;;;;35.68;20.80;;;;;;;-1.84;66.42;94839.80;1584342;89;21122;-47
2022/01/26 05:12:08;;;;;;;25.65;17.67;;;;;;;-1.83;66.42;94841.35;1603759;87;21272;-47
2022/01/26 05:14:34;;;;;;;36.35;21.12;;;;;;;-1.81;66.47;94843.11;1623720;86;21496;-49
2022/01/26 05:17:01;;;;;;;21.12;15.50;;;;;;;-1.74;66.34;94841.83;1575254;89;21126;-47
2022/01/26 05:19:28;;;;;;;23.80;16.80;;;;;;;-1.70;65.91;94830.55;1603396;88;21194;-47
2022/01/26 05:21:55;;;;;;;23.92;17.60;;;;;;;-1.68;65.48;94840.39;1599317;88;20992;-47
2022/01/26 05:24:22;;;;;;;23.12;16.10;;;;;;;-1.71;65.51;94837.08;1595286;88;21174;-48
2022/01/26 05:26:48;;;;;;;20.62;15.65;;;;;;;-1.77;65.49;94830.44;1597492;89;21000;-47
2022/01/26 05:29:15;;;;;;;23.52;16.90;;;;;;;-1.78;65.54;94841.61;1616089;87;21625;-47
2022/01/26 05:31:41;;;;;;;24.02;17.00;;;;;;;-1.82;65.52;94838.06;1602577;88;21271;-48
2022/01/26 05:34:08;;;;;;;23.52;16.70;;;;;;;-1.85;65.57;94835.55;1589624;89;21040;-47
2022/01/26 05:36:35;;;;;;;29.35;18.48;;;;;;;-1.85;65.59;94842.84;1586622;88;21483;-47
2022/01/26 05:39:03;;;;;;;27.15;19.42;;;;;;;-1.86;65.68;94838.05;1558728;90;21668;-52
2022/01/26 05:41:29;;;;;;;19.70;15.65;;;;;;;-1.85;65.62;94838.25;1587765;88;21001;-52
2022/01/26 05:43:56;;;;;;;36.55;23.62;;;;;;;-1.85;65.45;94839.59;1546353;89;21068;-50
2022/01/26 05:46:33;;;;;;;28.87;19.95;;;;;;;-1.84;65.40;94833.06;1635746;87;21031;-47
2022/01/26 05:48:52;;;;;;;33.50;22.50;;;;;;;-1.81;65.30;94833.67;1635482;86;21188;-48
2022/01/26 05:51:18;;;;;;;25.88;18.92;;;;;;;-1.82;65.33;94833.47;1640419;86;21061;-47
2022/01/26 05:53:45;;;;;;;23.22;15.75;;;;;;;-1.85;65.11;94838.80;1622352;87;21759;-48
2022/01/26 05:56:11;;;;;;;24.23;16.35;;;;;;;-1.97;65.54;94842.52;1629636;86;21029;-48
2022/01/26 05:58:38;;;;;;;32.42;22.17;;;;;;;-2.04;66.02;94834.34;1627565;86;21131;-48
2022/01/26 06:01:06;;;;;;;30.60;21.68;;;;;;;-2.03;66.21;94843.19;1635631;86;21098;-48
2022/01/26 06:03:33;;;;;;;30.48;19.67;;;;;;;-2.00;66.19;94841.90;1639147;86;21494;-48
2022/01/26 06:05:59;;;;;;;37.42;22.87;;;;;;;-2.00;66.21;94847.29;1637796;86;21038;-47
2022/01/26 06:08:26;;;;;;;64.40;34.53;;;;;;;-1.97;66.12;94839.81;1638435;86;21119;-48
2022/01/26 06:10:55;;;;;;;78.28;41.10;;;;;;;-2.00;66.08;94840.55;1638791;87;21024;-48
2022/01/26 06:13:22;;;;;;;71.50;39.98;;;;;;;-2.03;66.33;94839.94;1591340;88;21135;-50
2022/01/26 06:15:48;;;;;;;96.02;50.20;;;;;;;-1.97;66.57;94838.47;1576323;88;21067;-49
2022/01/26 06:18:15;;;;;;;78.17;43.08;;;;;;;-1.86;66.42;94844.78;1600686;87;21636;-49
2022/01/26 06:20:42;;;;;;;48.55;32.42;;;;;;;-1.77;66.28;94847.41;1581079;88;21140;-49
2022/01/26 06:23:08;;;;;;;47.03;28.40;;;;;;;-1.68;66.30;94841.15;1569315;89;21603;-50
2022/01/26 06:25:35;;;;;;;51.35;27.10;;;;;;;-1.59;66.15;94858.39;1604368;87;21264;-48
2022/01/26 06:28:07;;;;;;;44.08;27.65;;;;;;;-1.49;66.02;94857.75;1652541;84;21028;-48
2022/01/26 06:30:32;;;;;;;30.23;20.23;;;;;;;-1.51;66.10;94853.30;1641564;84;21038;-48
2022/01/26 06:32:58;;;;;;;50.98;29.45;;;;;;;-1.62;66.43;94853.73;1608006;87;21008;-47
2022/01/26 06:35:25;;;;;;;40.30;27.98;;;;;;;-1.68;67.01;94868.11;1628664;86;21125;-51
2022/01/26 06:37:51;;;;;;;38.73;25.97;;;;;;;-1.66;67.26;94863.13;1634738;86;22014;-54
2022/01/26 06:40:18;;;;;;;56.95;33.40;;;;;;;-1.56;67.62;94873.84;1645569;86;21657;-52
2022/01/26 06:42:58;;;;;;;31.40;21.68;;;;;;;-1.45;67.46;94866.66;1635252;84;21068;-52
2022/01/26 06:45:25;;;;;;;34.10;21.97;;;;;;;-1.38;66.87;94861.33;1668780;84;21084;-52
2022/01/26 06:48:10;;;;;;;;;;;;;;;;;;;;;
2022/01/26 06:50:20;;;;;;;44.38;24.80;;;;;;;-1.75;66.75;94871.29;1642972;86;21970;-52
2022/01/26 06:52:47;;;;;;;50.03;34.92;;;;;;;-2.07;67.30;94859.33;1628809;86;21309;-50
2022/01/26 06:55:17;;;;;;;73.30;40.28;;;;;;;-2.24;68.09;94867.94;1636368;85;21037;-53
2022/01/26 06:57:43;;;;;;;38.33;27.80;;;;;;;-2.27;68.84;94860.59;1645317;84;21139;-51
2022/01/26 07:00:11;;;;;;;45.33;31.40;;;;;;;-2.22;68.73;94861.62;1638377;86;21586;-51
2022/01/26 07:02:39;;;;;;;31.37;20.77;;;;;;;-2.18;68.68;94863.02;1660095;85;21144;-51
2022/01/26 07:05:07;;;;;;;31.17;20.80;;;;;;;-2.16;68.76;94862.84;1638304;85;21054;-54
2022/01/26 07:07:34;;;;;;;41.58;30.77;;;;;;;-2.18;68.68;94859.74;1625839;85;21544;-53
2022/01/26 07:10:01;;;;;;;30.57;22.20;;;;;;;-2.24;69.10;94869.29;1649138;84;21001;-55
2022/01/26 07:12:28;;;;;;;44.45;27.87;;;;;;;-2.19;69.28;94874.91;1630679;86;21148;-53
2022/01/26 07:23:03;;;;;;;42.48;29.57;;;;;;;-1.62;68.72;94873.97;1641814;85;21075;-57
2022/01/26 07:25:29;;;;;;;44.10;26.93;;;;;;;-1.46;68.28;94878.03;1635229;85;21554;-54
2022/01/26 07:27:57;;;;;;;37.20;23.62;;;;;;;-1.34;67.59;94867.56;1647529;85;21142;-54
2022/01/26 07:30:24;;;;;;;24.82;18.27;;;;;;;-1.32;67.04;94863.92;1644403;85;22195;-50
2022/01/26 07:32:51;;;;;;;27.85;20.97;;;;;;;-1.40;66.63;94865.77;1638928;85;21067;-52
2022/01/26 07:35:17;;;;;;;33.23;22.02;;;;;;;-1.47;66.82;94869.71;1615297;86;21207;-53
2022/01/26 07:37:45;;;;;;;29.70;21.00;;;;;;;-1.46;67.09;94868.59;1622920;84;21148;-55
2022/01/26 07:40:13;;;;;;;70.35;54.40;;;;;;;-1.46;67.20;94877.24;1662150;85;21226;-52
2022/01/26 07:42:40;;;;;;;30.40;20.08;;;;;;;-1.45;67.54;94873.41;1639115;84;21170;-51
2022/01/26 07:45:11;;;;;;;34.27;22.45;;;;;;;-1.37;67.43;94870.42;1640697;85;21068;-54
2022/01/26 07:47:37;;;;;;;32.90;20.00;;;;;;;-1.19;67.19;94863.85;1627687;85;21140;-54
2022/01/26 07:50:08;;;;;;;44.63;29.48;;;;;;;-1.04;66.45;94859.59;1630388;85;21117;-53
2022/01/26 07:52:39;;;;;;;41.33;25.72;;;;;;;-0.90;66.05;94863.00;1647473;84;22226;-52
2022/01/26 07:55:07;;;;;;;42.35;25.23;;;;;;;-0.85;65.44;94860.75;1627285;84;21612;-51
2022/01/26 07:57:34;;;;;;;36.05;22.13;;;;;;;-0.81;65.27;94860.78;1616622;86;21030;-54
2022/01/26 08:00:03;;;;;;;31.77;20.77;;;;;;;-0.78;64.65;94858.69;1595689;87;21520;-54
2022/01/26 08:02:29;;;;;;;32.13;21.73;;;;;;;-0.78;64.79;94856.75;1585932;88;21042;-52
2022/01/26 08:04:57;;;;;;;43.58;27.58;;;;;;;-0.72;64.53;94861.23;1564806;89;21184;-54
2022/01/26 08:07:24;;;;;;;29.55;20.77;;;;;;;-0.65;64.51;94872.09;1596262;87;21076;-50
2022/01/26 08:09:50;;;;;;;52.55;36.60;;;;;;;-0.65;63.97;94874.23;1568724;89;21109;-53
2022/01/26 08:12:21;;;;;;;38.00;23.47;;;;;;;-0.69;64.22;94872.64;1606018;87;21077;-52
2022/01/26 08:14:48;;;;;;;30.37;19.95;;;;;;;-0.66;63.99;94879.44;1577435;89;21215;-52
2022/01/26 08:17:15;;;;;;;36.23;23.10;;;;;;;-0.80;63.92;94865.80;1595063;89;21104;-53
2022/01/26 08:19:42;;;;;;;84.10;45.10;;;;;;;-0.92;64.49;94865.30;1565908;89;21127;-49
2022/01/26 08:22:11;;;;;;;48.73;29.23;;;;;;;-0.97;65.03;94873.74;1585242;87;21126;-52
2022/01/26 08:24:39;;;;;;;111.95;58.85;;;;;;;-0.84;65.34;94865.55;1574925;87;21419;-53
2022/01/26 08:27:11;;;;;;;43.73;28.60;;;;;;;-0.61;65.37;94877.73;1559421;88;21540;-55
2022/01/26 08:29:42;;;;;;;41.85;24.72;;;;;;;-0.23;65.04;94871.09;1616784;86;21141;-57
2022/01/26 08:32:07;;;;;;;31.68;21.50;;;;;;;0.16;64.19;94866.91;1585476;88;21096;-57
2022/01/26 08:34:36;;;;;;;36.17;23.75;;;;;;;0.40;62.80;94874.37;1586993;88;21580;-56
2022/01/26 08:37:03;;;;;;;30.88;20.02;;;;;;;0.45;62.43;94865.88;1593303;88;22064;-52
2022/01/26 08:39:32;;;;;;;29.98;21.25;;;;;;;0.49;62.41;94858.58;1589184;88;22122;-53
2022/01/26 08:42:00;;;;;;;32.13;20.55;;;;;;;0.57;62.26;94859.38;1583135;88;21181;-57
2022/01/26 08:44:30;;;;;;;34.90;22.70;;;;;;;0.65;61.52;94859.03;1566731;88;21524;-52
2022/01/26 08:46:58;;;;;;;36.48;24.72;;;;;;;0.71;61.17;94858.06;1602724;87;21536;-54
2022/01/26 08:49:25;;;;;;;38.00;25.72;;;;;;;0.83;61.08;94867.20;1587598;89;21560;-52
2022/01/26 08:51:52;;;;;;;31.02;20.12;;;;;;;0.92;60.83;94857.55;1585274;88;21351;-51
2022/01/26 08:54:22;;;;;;;32.20;22.95;;;;;;;0.92;60.23;94873.80;1646744;85;21283;-55
2022/01/26 08:56:51;;;;;;;31.65;21.75;;;;;;;0.70;60.49;94870.83;1646513;85;21008;-51
2022/01/26 08:59:18;;;;;;;89.00;56.73;;;;;;;0.49;60.70;94857.22;1637882;85;21135;-50
2022/01/26 09:01:48;;;;;;;47.43;32.20;;;;;;;0.42;61.12;94874.76;1619682;84;48228;-54
2022/01/26 09:04:15;;;;;;;36.48;22.87;;;;;;;0.31;61.36;94869.10;1635573;85;21332;-53
2022/01/26 09:07:04;;;;;;;30.80;20.15;;;;;;;0.15;61.66;94874.83;1644251;85;21218;-55
2022/01/26 09:09:11;;;;;;;27.87;20.25;;;;;;;0.04;62.06;94875.92;1616395;86;21020;-53
2022/01/26 09:11:39;;;;;;;30.85;19.80;;;;;;;0.06;61.92;94869.55;1637778;84;21117;-50
2022/01/26 09:14:08;;;;;;;28.35;18.75;;;;;;;0.04;61.99;94875.33;1638323;84;21077;-52
2022/01/26 09:16:36;;;;;;;29.80;18.92;;;;;;;0.04;62.02;94879.97;1638171;85;21112;-52
2022/01/26 09:19:11;;;;;;;22.10;16.73;;;;;;;-0.03;62.29;94871.04;1639420;85;21990;-51
2022/01/26 09:21:32;;;;;;;26.90;18.73;;;;;;;-0.07;62.52;94879.71;1628879;85;21132;-61
2022/01/26 09:23:59;;;;;;;33.20;23.05;;;;;;;-0.11;62.74;94858.61;1647120;85;21854;-54
2022/01/26 09:26:25;;;;;;;32.83;23.90;;;;;;;-0.02;62.78;94852.31;1615439;86;21654;-52
2022/01/26 09:28:52;;;;;;;29.10;23.47;;;;;;;0.25;62.46;94859.22;1643583;85;21072;-54
2022/01/26 09:31:19;;;;;;;22.50;17.48;;;;;;;0.55;61.47;94855.69;1642406;85;21128;-54
2022/01/26 09:33:46;;;;;;;30.95;22.02;;;;;;;0.71;60.65;94848.02;1612397;85;21037;-51
2022/01/26 09:36:13;;;;;;;49.93;30.50;;;;;;;0.77;60.51;94851.89;1639257;85;21126;-51
2022/01/26 09:38:41;;;;;;;32.25;19.90;;;;;;;0.79;60.36;94854.99;1607718;85;21364;-51
2022/01/26 09:41:07;;;;;;;33.55;23.30;;;;;;;0.92;59.97;94849.43;1639895;85;21532;-49
2022/01/26 09:43:34;;;;;;;31.73;22.30;;;;;;;1.02;59.70;94847.34;1648697;84;21174;-51
2022/01/26 09:46:00;;;;;;;32.25;22.02;;;;;;;1.07;59.63;94840.19;1644383;85;21148;-53
2022/01/26 09:48:27;;;;;;;28.17;20.05;;;;;;;1.15;59.50;94838.27;1652425;85;21013;-55
2022/01/26 09:50:57;;;;;;;26.90;19.00;;;;;;;1.24;59.45;94839.44;1571089;87;21118;-53
2022/01/26 09:53:28;;;;;;;28.57;18.95;;;;;;;1.40;59.24;94840.41;1558738;89;21109;-52
2022/01/26 09:55:53;;;;;;;26.68;18.35;;;;;;;1.52;58.77;94831.31;1593445;88;21146;-52
2022/01/26 09:58:23;;;;;;;26.37;18.40;;;;;;;1.53;58.50;94831.50;1578574;87;21049;-51
2022/01/26 10:01:04;;;;;;;31.55;21.17;;;;;;;1.43;58.43;94830.94;1564027;89;21136;-53
2022/01/26 10:03:34;;;;;;;32.20;20.52;;;;;;;1.28;59.05;94825.31;1574998;88;21549;-51
2022/01/26 10:06:01;;;;;;;23.87;17.45;;;;;;;1.18;59.49;94824.70;1599546;87;21678;-51
2022/01/26 10:19:06;;;;;;;34.55;23.05;;;;;;;0.94;61.41;94824.69;1583074;88;21220;-54
2022/01/26 10:21:35;;;;;;;26.42;18.55;;;;;;;0.96;61.64;94825.08;1613416;86;21582;-53
2022/01/26 10:24:09;;;;;;;25.35;16.80;;;;;;;1.01;61.67;94836.31;1575640;89;21067;-52
2022/01/26 10:26:38;;;;;;;25.97;18.27;;;;;;;0.95;61.93;94824.29;1591637;88;21103;-50
2022/01/26 10:29:06;;;;;;;23.22;17.80;;;;;;;0.88;62.34;94823.49;1649201;85;21034;-52
2022/01/26 10:31:39;;;;;;;24.10;17.40;;;;;;;0.90;62.60;94823.31;1635504;85;21093;-51
2022/01/26 10:34:15;;;;;;;22.05;16.35;;;;;;;0.98;62.59;94820.80;1642023;85;21145;-52
2022/01/26 10:36:50;;;;;;;25.25;18.37;;;;;;;0.95;62.93;94828.34;1661554;84;21034;-52
2022/01/26 10:39:26;;;;;;;;;;;;;;;;;;;;;
2022/01/26 10:41:53;;;;;;;30.60;20.05;;;;;;;0.72;64.43;94822.50;1652602;84;21060;-50
2022/01/26 10:44:34;;;;;;;26.37;18.27;;;;;;;0.70;64.89;94828.09;1589819;86;21093;-55
2022/01/26 10:47:02;;;;;;;26.27;19.35;;;;;;;0.63;65.47;94825.37;1631639;85;21109;-50
2022/01/26 10:49:55;;;;;;;24.50;17.70;;;;;;;0.56;65.90;94829.41;1635970;85;21457;-51
2022/01/26 10:52:03;;;;;;;27.70;17.70;;;;;;;0.55;66.13;94819.16;1634730;84;21064;-51
2022/01/26 10:54:39;;;;;;;26.10;19.02;;;;;;;0.55;66.11;94826.52;1601105;86;21181;-53
2022/01/26 10:57:10;;;;;;;24.40;17.35;;;;;;;0.58;66.30;94825.16;1640096;86;21078;-52
2022/01/26 10:59:45;;;;;;;28.17;19.30;;;;;;;0.76;66.02;94824.63;1625486;85;21163;-51
2022/01/26 11:02:13;;;;;;;25.72;18.05;;;;;;;0.90;65.82;94811.13;1638361;85;21046;-53
2022/01/26 11:04:41;;;;;;;29.40;19.77;;;;;;;1.04;65.29;94817.94;1647152;84;21066;-56
2022/01/26 11:07:11;;;;;;;37.05;23.15;;;;;;;1.10;65.28;94824.52;1635051;85;21076;-51
2022/01/26 11:09:41;;;;;;;30.75;21.00;;;;;;;1.23;65.02;94824.34;1564311;89;22013;-51
2022/01/26 11:12:11;;;;;;;30.35;21.23;;;;;;;1.31;64.48;94821.82;1592597;87;21162;-51
2022/01/26 11:14:51;;;;;;;30.50;19.98;;;;;;;1.42;64.26;94819.11;1634618;85;21558;-51
2022/01/26 11:17:34;;;;;;;32.73;21.40;;;;;;;1.44;64.05;94809.45;1647025;85;21100;-52
2022/01/26 11:20:03;;;;;;;36.35;22.00;;;;;;;1.46;63.53;94809.04;1642270;86;21622;-51
2022/01/26 11:22:32;;;;;;;31.37;20.72;;;;;;;1.39;63.34;94807.70;1652749;85;21261;-52
2022/01/26 11:25:10;;;;;;;34.83;21.40;;;;;;;1.36;63.12;94811.19;1637725;86;21167;-51
2022/01/26 11:27:39;;;;;;;35.75;22.85;;;;;;;1.30;62.93;94822.22;1637268;85;21136;-51
2022/01/26 11:30:26;;;;;;;38.70;24.27;;;;;;;1.20;63.07;94812.14;1653319;84;21604;-53
2022/01/26 11:33:03;;;;;;;34.25;22.82;;;;;;;1.15;63.25;94803.80;1639217;84;21084;-52
2022/01/26 11:35:34;;;;;;;35.33;22.35;;;;;;;1.15;63.27;94802.45;1638607;86;21051;-51
2022/01/26 11:38:18;;;;;;;41.70;27.42;;;;;;;1.18;62.74;94804.98;1643544;85;21840;-54
2022/01/26 11:46:31;;;;;;;39.08;24.75;;;;;;;0.86;63.23;94808.22;1646676;84;21083;-50
2022/01/26 11:49:08;;;;;;;45.50;29.20;;;;;;;0.78;63.25;94808.77;1635413;85;21146;-49
2022/01/26 11:51:41;;;;;;;42.53;27.98;;;;;;;0.73;63.88;94811.87;1657364;84;21864;-51
2022/01/26 11:54:26;;;;;;;41.85;28.23;;;;;;;0.81;63.85;94806.65;1647470;85;21515;-49
2022/01/26 11:57:09;;;;;;;41.23;27.30;;;;;;;0.91;63.71;94809.97;1653233;85;21263;-51
2022/01/26 11:59:41;;;;;;;39.13;25.25;;;;;;;1.04;63.37;94805.75;1648634;84;21080;-51
2022/01/26 12:02:19;;;;;;;38.05;23.90;;;;;;;1.16;62.94;94805.36;1612159;87;21016;-53
2022/01/26 12:04:37;;;;;;;42.00;27.15;;;;;;;1.21;62.67;94803.64;1592734;87;21201;-49
2022/01/26 12:07:13;;;;;;;34.38;23.50;;;;;;;1.25;62.52;94801.70;1630538;86;21527;-52
2022/01/26 12:09:40;;;;;;;34.18;22.05;;;;;;;1.28;62.40;94802.27;1641020;85;21016;-50
2022/01/26 12:12:10;;;;;;;40.30;25.90;;;;;;;1.24;62.26;94803.42;1626062;86;21452;-51
2022/01/26 12:14:36;;;;;;;40.25;25.70;;;;;;;1.24;62.18;94800.16;1653403;85;22379;-52
2022/01/26 12:17:09;;;;;;;41.63;27.73;;;;;;;1.23;62.16;94798.61;1645301;85;21146;-51
2022/01/26 12:19:41;;;;;;;41.15;25.77;;;;;;;1.21;62.30;94807.70;1656926;85;21057;-53
2022/01/26 12:36:25;;;;;;;143.70;128.40;;;;;;;1.35;61.72;94795.49;1620522;87;21059;-53
2022/01/26 12:38:49;;;;;;;51.75;36.45;;;;;;;1.30;62.11;94799.95;1590837;85;21072;-50
2022/01/26 12:41:24;;;;;;;53.73;36.05;;;;;;;1.31;62.06;94796.08;1626423;85;21086;-50
2022/01/26 12:43:48;;;;;;;81.15;53.35;;;;;;;1.29;62.41;94795.70;1616278;86;21167;-53
2022/01/26 12:46:30;;;;;;;56.65;36.98;;;;;;;1.35;62.43;94796.84;1626470;84;21205;-54
2022/01/26 12:49:07;;;;;;;40.58;28.27;;;;;;;1.36;62.00;94795.69;1647830;85;21063;-52
2022/01/26 12:51:48;;;;;;;46.60;28.47;;;;;;;1.28;62.20;94801.52;1647156;85;21065;-49
2022/01/26 12:54:15;;;;;;;41.65;30.23;;;;;;;1.17;62.53;94809.61;1624911;85;22493;-49
2022/01/26 12:56:42;;;;;;;48.58;34.15;;;;;;;1.08;62.70;94809.23;1578554;88;23199;-50
2022/01/26 12:59:12;;;;;;;45.03;29.05;;;;;;;1.03;62.97;94814.25;1586326;88;21060;-51
2022/01/26 13:01:40;;;;;;;44.90;29.80;;;;;;;1.11;62.91;94818.53;1601037;86;21116;-49
2022/01/26 13:04:11;;;;;;;50.73;34.85;;;;;;;1.21;62.77;94812.33;1570206;89;21110;-50
2022/01/26 13:06:43;;;;;;;48.78;31.57;;;;;;;1.30;62.68;94814.85;1570646;88;21108;-57
2022/01/26 13:09:29;;;;;;;56.63;32.90;;;;;;;1.41;62.48;94806.73;1582018;87;21306;-49
2022/01/26 13:11:59;;;;;;;51.50;31.05;;;;;;;1.54;62.02;94820.84;1603346;87;21062;-48
2022/01/26 13:23:01;;;;;;;57.40;33.30;;;;;;;1.24;62.21;94800.72;1645538;84;21161;-49
2022/01/26 13:28:21;;;;;;;75.15;42.88;;;;;;;1.35;61.95;94798.20;1631047;84;21118;-50
2022/01/26 13:30:59;;;;;;;64.50;36.95;;;;;;;1.41;61.90;94803.45;1647554;84;21099;-49
2022/01/26 13:36:12;;;;;;;47.48;29.75;;;;;;;1.50;61.60;94801.70;1639675;85;21154;-49
2022/01/26 13:41:22;;;;;;;72.60;41.83;;;;;;;1.43;61.81;94801.69;1629085;86;21103;-51
2022/01/26 13:57:07;;;;;;;44.93;29.05;;;;;;;1.36;62.33;94799.75;1629643;85;21119;-50
2022/01/26 13:59:43;;;;;;;41.48;25.65;;;;;;;1.44;62.33;94805.38;1637634;85;21131;-53
2022/01/26 14:02:00;;;;;;;46.10;25.62;;;;;;;1.51;62.29;94806.72;1638439;85;21303;-50
2022/01/26 14:04:26;;;;;;;44.67;27.50;;;;;;;1.55;62.13;94804.80;1640203;85;21069;-53